メインページ
METAR-TAF:

METAR-TAF

空港 :

テテ, モザンビーク

緯度: 16-06S, 経度: 033-38E, 海抜: 160m

現時点の気象観測

当レポートは1時間8分前の15:00(UTC)に作成
東/南東の風 7kt、から南/南東の間で変化する
気温 30°C
湿度 46%
気圧 1016 hPa
視程10km以上
高度2000ftの雲は散在している
高度10000ftの千切れ雲あり

METAR: FQTT 161500Z 12007KT 090V150 9999 SCT020 BKN100 30/17 Q1016

時間: 18:08 (16:08 UTC)

予報

当レポートは6時間8分前の10:00(UTC)に作成
予報は16日の 12時(UTC)から 17日の 12時(UTC)まで有効
南/南東の風 10kt
視程10km以上
高度2000ftの千切れ雲あり
16日の 18時(UTC)から 16日の 20時(UTC)まで徐々に
の風 10kt、最大22ktの突風を伴う
17日の 01時(UTC)から 17日の 03時(UTC)まで徐々に
変向風 3kt
17日の 07時(UTC)から 17日の 09時(UTC)まで徐々に
東/南東の風 10kt

TAF: FQTT 161000Z 1612/1712 15010KT 9999 BKN020 TX31/1613Z TN20/1702Z BECMG 1618/1620 17010G22KT BECMG 1701/1703 VRB03KT BECMG 1707/1709 11010KT

4,000以上の空港の気象観測と天気予報(METAR報とTAF報)

利用可能な観測所は地図上に黄色い丸と赤い丸で示す。

丸の上にカーソルを重ねると観測所名を参照できる。

次にクリックすると気象観測と天気予報を参照できる。

マップの切り替え:黒色「×」印の緑ボタンをクリックして拡大、「-」印の緑ボタンをクリックして縮小、緑色の三角印をクリックして隣りの地図に切り替え


METAR-TAF: